Time;durP1;ratioP1;P1;durP2;ratioP2;P2;SDS_P1;SDS_P2;PMS_P1;PMS_P2;Temp;Humidity;BMP_temperature;BMP_pressure;BME280_temperature;BME280_humidity;BME280_pressure;Samples;Min_cycle;Max_cycle;Signal;HPM_P1;HPM_P2
2023/07/26 00:01:54;;;;;;;21.60;20.40;;;;;;;;;;5086014;28;20443;-83
2023/07/26 00:04:21;;;;;;;21.20;20.10;;;;;;;;;;5086637;28;20437;-84
2023/07/26 00:06:48;;;;;;;21.53;20.33;;;;;;;;;;5086514;28;20445;-84
2023/07/26 00:09:15;;;;;;;21.90;20.50;;;;;;;;;;5086243;28;20432;-83
2023/07/26 00:11:42;;;;;;;21.33;20.23;;;;;;;;;;5087249;28;20462;-85
2023/07/26 00:14:09;;;;;;;21.83;20.53;;;;;;;;;;5086971;28;20408;-85
2023/07/26 00:16:37;;;;;;;21.50;20.40;;;;;;;;;;5086210;28;20448;-84
2023/07/26 00:19:05;;;;;;;21.93;20.47;;;;;;;;;;5086133;28;20443;-84
2023/07/26 00:21:33;;;;;;;21.93;20.63;;;;;;;;;;5086113;28;20932;-85
2023/07/26 00:24:01;;;;;;;20.80;19.57;;;;;;;;;;5086439;28;21074;-83
2023/07/26 00:26:28;;;;;;;21.57;20.27;;;;;;;;;;5086210;28;20415;-85
2023/07/26 00:28:55;;;;;;;21.70;20.20;;;;;;;;;;5085370;28;20888;-84
2023/07/26 00:31:22;;;;;;;21.40;20.20;;;;;;;;;;5085422;28;20440;-84
2023/07/26 00:33:49;;;;;;;21.77;20.33;;;;;;;;;;5085176;28;20438;-84
2023/07/26 00:36:18;;;;;;;20.67;19.60;;;;;;;;;;5085129;28;20416;-83
2023/07/26 00:38:45;;;;;;;20.80;19.70;;;;;;;;;;5085387;28;20909;-84
2023/07/26 00:41:12;;;;;;;21.37;20.07;;;;;;;;;;5085202;28;20444;-85
2023/07/26 00:43:39;;;;;;;20.87;19.67;;;;;;;;;;5085057;28;20461;-82
2023/07/26 00:46:07;;;;;;;21.03;19.93;;;;;;;;;;5085606;28;20523;-85
2023/07/26 00:48:35;;;;;;;21.27;20.00;;;;;;;;;;5084261;28;20450;-85
2023/07/26 00:51:02;;;;;;;21.17;19.77;;;;;;;;;;5084470;28;20470;-84
2023/07/26 00:53:31;;;;;;;20.93;19.73;;;;;;;;;;5084640;28;20437;-85
2023/07/26 00:55:58;;;;;;;20.97;19.87;;;;;;;;;;5084318;28;20463;-84
2023/07/26 00:58:25;;;;;;;20.37;19.37;;;;;;;;;;5084549;28;20462;-85
2023/07/26 01:00:52;;;;;;;21.23;19.93;;;;;;;;;;5084315;28;20503;-84
2023/07/26 01:03:19;;;;;;;20.77;19.60;;;;;;;;;;5084947;28;20432;-85
2023/07/26 01:05:51;;;;;;;21.10;19.90;;;;;;;;;;5085020;28;20450;-84
2023/07/26 01:08:23;;;;;;;21.50;20.30;;;;;;;;;;5084258;28;20421;-84
2023/07/26 01:10:55;;;;;;;20.83;19.70;;;;;;;;;;5084709;28;20444;-84
2023/07/26 01:13:24;;;;;;;21.47;20.30;;;;;;;;;;5083944;28;20468;-85
2023/07/26 01:15:51;;;;;;;21.00;19.80;;;;;;;;;;5083810;28;20424;-84
2023/07/26 01:18:19;;;;;;;21.73;20.33;;;;;;;;;;5083473;28;20455;-84
2023/07/26 01:20:46;;;;;;;21.13;19.80;;;;;;;;;;5083640;28;20569;-83
2023/07/26 01:23:15;;;;;;;20.60;19.40;;;;;;;;;;5084563;28;20497;-83
2023/07/26 01:25:42;;;;;;;21.87;20.33;;;;;;;;;;5083230;28;20407;-83
2023/07/26 01:28:09;;;;;;;20.47;19.37;;;;;;;;;;5083651;28;20420;-83
2023/07/26 01:30:37;;;;;;;21.27;19.87;;;;;;;;;;5083312;28;20420;-85
2023/07/26 01:33:06;;;;;;;20.77;19.57;;;;;;;;;;5084126;28;20473;-84
2023/07/26 01:35:33;;;;;;;20.33;19.33;;;;;;;;;;5083348;28;20421;-83
2023/07/26 01:38:01;;;;;;;20.60;19.50;;;;;;;;;;5083382;28;20468;-84
2023/07/26 01:40:31;;;;;;;21.00;19.63;;;;;;;;;;5083452;28;20512;-85
2023/07/26 01:42:58;;;;;;;20.57;19.47;;;;;;;;;;5083840;28;20431;-84
2023/07/26 01:45:25;;;;;;;20.10;19.00;;;;;;;;;;5083120;28;20554;-84
2023/07/26 01:47:54;;;;;;;19.80;18.80;;;;;;;;;;5083452;28;20435;-85
2023/07/26 01:50:22;;;;;;;20.13;19.03;;;;;;;;;;5083178;28;20458;-82
2023/07/26 01:52:49;;;;;;;20.43;19.30;;;;;;;;;;5083386;28;20416;-84
2023/07/26 01:55:16;;;;;;;21.03;19.93;;;;;;;;;;5083758;28;20420;-84
2023/07/26 01:57:44;;;;;;;21.40;20.20;;;;;;;;;;5083613;28;20494;-83
2023/07/26 02:00:12;;;;;;;21.40;20.03;;;;;;;;;;5082350;28;20444;-84
2023/07/26 02:02:39;;;;;;;21.37;20.17;;;;;;;;;;5082773;28;20492;-85
2023/07/26 02:05:07;;;;;;;20.90;19.77;;;;;;;;;;5083721;28;20446;-83
2023/07/26 02:07:34;;;;;;;20.33;19.23;;;;;;;;;;5083167;28;20477;-83
2023/07/26 02:10:01;;;;;;;21.50;20.20;;;;;;;;;;5082891;28;20529;-85
2023/07/26 02:12:28;;;;;;;21.60;20.30;;;;;;;;;;5083773;28;20440;-85
2023/07/26 02:14:57;;;;;;;20.57;19.37;;;;;;;;;;5084373;28;20429;-85
2023/07/26 02:17:24;;;;;;;20.47;19.27;;;;;;;;;;5083601;28;20494;-84
2023/07/26 02:19:51;;;;;;;21.00;19.80;;;;;;;;;;5082959;28;20494;-84
2023/07/26 02:22:18;;;;;;;21.20;20.00;;;;;;;;;;5085846;28;21094;-83
2023/07/26 02:24:45;;;;;;;20.73;19.63;;;;;;;;;;5087424;28;20417;-84
2023/07/26 02:27:12;;;;;;;20.33;19.13;;;;;;;;;;5086934;28;20457;-84
2023/07/26 02:29:39;;;;;;;21.10;20.00;;;;;;;;;;5086916;28;20453;-84
2023/07/26 02:32:08;;;;;;;20.50;19.40;;;;;;;;;;5087090;28;20432;-84
2023/07/26 02:34:37;;;;;;;20.93;19.73;;;;;;;;;;5086764;28;20434;-83
2023/07/26 02:37:04;;;;;;;20.93;19.73;;;;;;;;;;5086737;28;20495;-85
2023/07/26 02:39:31;;;;;;;20.43;19.20;;;;;;;;;;5086600;28;20771;-84
2023/07/26 02:41:58;;;;;;;20.47;19.47;;;;;;;;;;5087112;28;20476;-83
2023/07/26 02:44:25;;;;;;;20.10;19.00;;;;;;;;;;5087392;28;20587;-84
2023/07/26 02:46:52;;;;;;;20.43;19.33;;;;;;;;;;5086886;28;20430;-83
2023/07/26 02:49:20;;;;;;;20.97;19.77;;;;;;;;;;5086984;28;20439;-85
2023/07/26 02:51:47;;;;;;;20.40;19.20;;;;;;;;;;5086290;28;20806;-84
2023/07/26 02:54:15;;;;;;;20.07;18.93;;;;;;;;;;5086145;28;20457;-84
2023/07/26 02:56:42;;;;;;;21.27;19.87;;;;;;;;;;5085839;28;20424;-84
2023/07/26 02:59:09;;;;;;;20.43;19.33;;;;;;;;;;5083902;28;20508;-83
2023/07/26 03:01:36;;;;;;;21.63;20.20;;;;;;;;;;5085428;28;20451;-84
2023/07/26 03:04:03;;;;;;;20.10;19.10;;;;;;;;;;5085892;28;20448;-84
2023/07/26 03:06:31;;;;;;;21.60;20.50;;;;;;;;;;5085562;28;20499;-84
2023/07/26 03:08:58;;;;;;;19.80;18.80;;;;;;;;;;5085125;28;20506;-83
2023/07/26 03:11:25;;;;;;;20.40;19.00;;;;;;;;;;5085093;28;20459;-84
2023/07/26 03:13:52;;;;;;;20.80;19.70;;;;;;;;;;5084986;28;20420;-84
2023/07/26 03:16:19;;;;;;;20.57;19.47;;;;;;;;;;5084929;28;20421;-84
2023/07/26 03:18:46;;;;;;;21.03;19.60;;;;;;;;;;5084534;28;20484;-83
2023/07/26 03:21:13;;;;;;;20.70;19.50;;;;;;;;;;5085503;28;20484;-85
2023/07/26 03:23:42;;;;;;;20.93;19.60;;;;;;;;;;5085487;28;20425;-84
2023/07/26 03:26:09;;;;;;;21.77;20.37;;;;;;;;;;5084776;28;20487;-84
2023/07/26 03:28:36;;;;;;;20.90;19.70;;;;;;;;;;5083709;28;20951;-85
2023/07/26 03:31:03;;;;;;;21.40;20.30;;;;;;;;;;5085041;28;20454;-83
2023/07/26 03:33:30;;;;;;;21.03;19.83;;;;;;;;;;5083470;28;20439;-85
2023/07/26 03:35:57;;;;;;;21.90;20.60;;;;;;;;;;5084000;28;20423;-84
2023/07/26 03:38:24;;;;;;;21.10;20.00;;;;;;;;;;5083844;28;20542;-84
2023/07/26 03:40:53;;;;;;;21.80;20.60;;;;;;;;;;5084475;28;20455;-85
2023/07/26 03:43:20;;;;;;;21.33;20.03;;;;;;;;;;5084790;28;20424;-83
2023/07/26 03:45:47;;;;;;;20.63;19.43;;;;;;;;;;5084843;28;20431;-84
2023/07/26 03:48:14;;;;;;;21.73;20.53;;;;;;;;;;5084628;28;20428;-83
2023/07/26 03:50:41;;;;;;;21.07;19.87;;;;;;;;;;5083832;28;20428;-84
2023/07/26 03:53:08;;;;;;;21.07;19.87;;;;;;;;;;5083729;28;20457;-83
2023/07/26 03:55:35;;;;;;;21.13;20.03;;;;;;;;;;5084065;28;20409;-83
2023/07/26 03:58:03;;;;;;;22.13;20.83;;;;;;;;;;5084480;28;20460;-84
2023/07/26 04:00:30;;;;;;;22.03;20.63;;;;;;;;;;5083287;28;20405;-83
2023/07/26 04:02:57;;;;;;;22.70;20.97;;;;;;;;;;5084049;28;20441;-84
2023/07/26 04:05:24;;;;;;;22.97;21.30;;;;;;;;;;5084556;28;20456;-84
2023/07/26 04:07:52;;;;;;;21.23;20.10;;;;;;;;;;5084577;28;20431;-84
2023/07/26 04:10:19;;;;;;;22.33;20.83;;;;;;;;;;5083971;28;20458;-84
2023/07/26 04:12:46;;;;;;;21.77;20.57;;;;;;;;;;5084857;28;20547;-84
2023/07/26 04:15:15;;;;;;;22.37;20.97;;;;;;;;;;5084513;28;20929;-83
2023/07/26 04:17:42;;;;;;;23.23;21.87;;;;;;;;;;5084063;28;20485;-83
2023/07/26 04:20:09;;;;;;;21.90;20.70;;;;;;;;;;5085545;28;20445;-84
2023/07/26 04:22:36;;;;;;;21.53;20.33;;;;;;;;;;5086345;28;20435;-84
2023/07/26 04:25:03;;;;;;;21.80;20.60;;;;;;;;;;5086616;28;20420;-85
2023/07/26 04:27:30;;;;;;;21.27;19.97;;;;;;;;;;5085976;28;20464;-85
2023/07/26 04:29:57;;;;;;;22.20;20.80;;;;;;;;;;5086495;28;20435;-85
2023/07/26 04:32:26;;;;;;;23.10;21.50;;;;;;;;;;5086871;28;20432;-85
2023/07/26 04:34:53;;;;;;;21.90;20.50;;;;;;;;;;5086299;28;20453;-85
2023/07/26 04:37:22;;;;;;;22.37;21.07;;;;;;;;;;5086661;28;20420;-84
2023/07/26 04:39:49;;;;;;;22.53;20.93;;;;;;;;;;5085907;28;20550;-84
2023/07/26 04:42:16;;;;;;;21.37;20.27;;;;;;;;;;5086437;28;20435;-84
2023/07/26 04:44:43;;;;;;;21.60;20.30;;;;;;;;;;5086096;28;20563;-85
2023/07/26 04:47:12;;;;;;;22.40;20.90;;;;;;;;;;5086218;28;20408;-84
2023/07/26 04:49:40;;;;;;;21.37;20.13;;;;;;;;;;5085721;28;20456;-84
2023/07/26 04:52:08;;;;;;;22.23;21.03;;;;;;;;;;5085944;28;20432;-85
2023/07/26 04:54:35;;;;;;;21.60;20.20;;;;;;;;;;5087015;28;20424;-85
2023/07/26 04:57:02;;;;;;;21.47;20.27;;;;;;;;;;5086308;28;20424;-85
2023/07/26 04:59:29;;;;;;;21.53;20.43;;;;;;;;;;5085349;28;20459;-85
2023/07/26 05:01:56;;;;;;;20.63;19.53;;;;;;;;;;5085335;28;20493;-85
2023/07/26 05:04:23;;;;;;;21.73;20.43;;;;;;;;;;5086150;28;20435;-85
2023/07/26 05:06:52;;;;;;;21.20;20.10;;;;;;;;;;5086376;28;20480;-84
2023/07/26 05:09:19;;;;;;;22.33;21.13;;;;;;;;;;5084130;28;20423;-85
2023/07/26 05:11:46;;;;;;;21.57;20.47;;;;;;;;;;5084637;28;20504;-85
2023/07/26 05:14:13;;;;;;;21.57;20.37;;;;;;;;;;5085441;28;20503;-85
2023/07/26 05:16:40;;;;;;;21.40;20.20;;;;;;;;;;5085618;28;20856;-86
2023/07/26 05:19:07;;;;;;;21.07;19.97;;;;;;;;;;5085413;28;20959;-85
2023/07/26 05:21:34;;;;;;;21.40;20.00;;;;;;;;;;5085750;28;20461;-85
2023/07/26 05:24:02;;;;;;;21.63;20.40;;;;;;;;;;5086168;28;20444;-85
2023/07/26 05:26:29;;;;;;;22.47;21.07;;;;;;;;;;5085869;28;20923;-84
2023/07/26 05:28:56;;;;;;;22.07;20.67;;;;;;;;;;5084907;28;20907;-85
2023/07/26 05:31:24;;;;;;;22.47;21.27;;;;;;;;;;5085652;28;20439;-85
2023/07/26 05:33:51;;;;;;;22.30;21.00;;;;;;;;;;5085250;28;20405;-83
2023/07/26 05:36:18;;;;;;;22.20;21.00;;;;;;;;;;5084035;28;20412;-85
2023/07/26 05:38:45;;;;;;;22.17;20.97;;;;;;;;;;5085116;28;20464;-85
2023/07/26 05:41:13;;;;;;;22.50;21.20;;;;;;;;;;5084367;28;20462;-85
2023/07/26 05:43:40;;;;;;;23.30;21.90;;;;;;;;;;5084753;28;20492;-85
2023/07/26 05:46:08;;;;;;;23.00;21.30;;;;;;;;;;5084403;28;20492;-86
2023/07/26 05:48:35;;;;;;;23.43;22.07;;;;;;;;;;5084104;28;20937;-85
2023/07/26 05:51:03;;;;;;;22.93;21.63;;;;;;;;;;5084776;28;20832;-85
2023/07/26 05:53:30;;;;;;;23.33;21.83;;;;;;;;;;5085113;28;20432;-85
2023/07/26 05:55:57;;;;;;;23.60;21.60;;;;;;;;;;5084025;28;20449;-85
2023/07/26 05:58:25;;;;;;;23.20;21.30;;;;;;;;;;5084560;28;20467;-85
2023/07/26 06:00:53;;;;;;;23.30;21.50;;;;;;;;;;5083542;28;20470;-86
2023/07/26 06:03:20;;;;;;;21.30;20.10;;;;;;;;;;5083671;28;20471;-85
2023/07/26 06:05:47;;;;;;;24.10;22.53;;;;;;;;;;5083567;28;20453;-85
2023/07/26 06:08:15;;;;;;;23.57;22.17;;;;;;;;;;5083528;28;20454;-84
2023/07/26 06:10:42;;;;;;;23.20;21.60;;;;;;;;;;5082564;28;20449;-84
2023/07/26 06:13:12;;;;;;;22.90;21.30;;;;;;;;;;5082417;28;20451;-85
2023/07/26 06:15:40;;;;;;;24.00;22.23;;;;;;;;;;5082872;28;20432;-84
2023/07/26 06:18:08;;;;;;;22.10;20.90;;;;;;;;;;5084217;28;20416;-85
2023/07/26 06:20:35;;;;;;;22.63;21.33;;;;;;;;;;5082539;28;20441;-84
2023/07/26 06:23:02;;;;;;;21.00;19.80;;;;;;;;;;5083234;28;20433;-84
2023/07/26 06:25:29;;;;;;;21.43;20.23;;;;;;;;;;5082273;28;20455;-83
2023/07/26 06:27:56;;;;;;;22.10;20.90;;;;;;;;;;5082359;28;20452;-83
2023/07/26 06:30:23;;;;;;;22.07;20.80;;;;;;;;;;5081514;28;20446;-85
2023/07/26 06:32:55;;;;;;;20.37;19.27;;;;;;;;;;5083213;28;20878;-85
2023/07/26 06:35:22;;;;;;;21.03;19.83;;;;;;;;;;5083022;28;20466;-85
2023/07/26 06:37:49;;;;;;;20.83;19.60;;;;;;;;;;5084207;28;20431;-85
2023/07/26 06:40:16;;;;;;;20.50;19.30;;;;;;;;;;5082905;28;20505;-85
2023/07/26 06:42:43;;;;;;;20.47;19.27;;;;;;;;;;5082922;28;21136;-85
2023/07/26 06:45:10;;;;;;;20.30;19.10;;;;;;;;;;5082536;28;20425;-85
2023/07/26 06:47:37;;;;;;;21.27;20.07;;;;;;;;;;5083266;28;20458;-84
2023/07/26 06:50:07;;;;;;;20.70;19.60;;;;;;;;;;5082572;28;20427;-85
2023/07/26 06:52:34;;;;;;;20.00;18.80;;;;;;;;;;5083501;28;20524;-86
2023/07/26 06:55:01;;;;;;;21.20;19.93;;;;;;;;;;5082581;28;20817;-84
2023/07/26 06:57:28;;;;;;;20.70;19.60;;;;;;;;;;5083309;28;20433;-85
2023/07/26 06:59:55;;;;;;;21.37;20.07;;;;;;;;;;5082754;28;20456;-86
2023/07/26 07:02:22;;;;;;;21.03;19.87;;;;;;;;;;5082711;28;20456;-85
2023/07/26 07:04:49;;;;;;;21.30;20.10;;;;;;;;;;5082636;28;20449;-85
2023/07/26 07:07:17;;;;;;;23.17;21.57;;;;;;;;;;5083529;28;20456;-84
2023/07/26 07:09:44;;;;;;;21.93;20.43;;;;;;;;;;5084405;28;20458;-85
2023/07/26 07:12:11;;;;;;;22.60;21.20;;;;;;;;;;5087026;28;20450;-85
2023/07/26 07:14:38;;;;;;;22.67;21.37;;;;;;;;;;5088443;28;20450;-85
2023/07/26 07:17:06;;;;;;;22.40;20.97;;;;;;;;;;5106668;28;20971;-84
2023/07/26 07:19:33;;;;;;;22.30;20.60;;;;;;;;;;5107612;28;20454;-85
2023/07/26 07:22:00;;;;;;;22.20;20.77;;;;;;;;;;5107033;28;20484;-83
2023/07/26 07:24:28;;;;;;;22.50;21.00;;;;;;;;;;5107666;28;20460;-85
2023/07/26 07:26:55;;;;;;;22.73;21.23;;;;;;;;;;5107758;28;20662;-84
2023/07/26 07:29:22;;;;;;;22.33;20.93;;;;;;;;;;5107154;28;20915;-85
2023/07/26 07:31:49;;;;;;;22.97;21.53;;;;;;;;;;5107005;28;20495;-84
2023/07/26 07:34:16;;;;;;;22.00;20.70;;;;;;;;;;5107083;28;20431;-85
2023/07/26 07:36:43;;;;;;;22.00;20.70;;;;;;;;;;5107365;28;20415;-85
2023/07/26 07:39:12;;;;;;;22.20;20.90;;;;;;;;;;5106178;28;20488;-86
2023/07/26 07:41:41;;;;;;;22.00;20.80;;;;;;;;;;5106980;28;20815;-84
2023/07/26 07:44:08;;;;;;;22.50;21.10;;;;;;;;;;5106863;28;20427;-85
2023/07/26 07:46:35;;;;;;;22.07;20.77;;;;;;;;;;5106692;28;20459;-84
2023/07/26 07:49:02;;;;;;;22.97;21.30;;;;;;;;;;5106519;28;20896;-84
2023/07/26 07:51:29;;;;;;;21.43;20.13;;;;;;;;;;5105591;28;20480;-84
2023/07/26 07:53:56;;;;;;;22.00;20.80;;;;;;;;;;5105738;28;20419;-85
2023/07/26 07:56:23;;;;;;;22.57;21.27;;;;;;;;;;5105134;28;21175;-86
2023/07/26 07:58:51;;;;;;;21.40;20.17;;;;;;;;;;5102052;28;20485;-87
2023/07/26 08:01:19;;;;;;;22.67;21.27;;;;;;;;;;5104646;28;20891;-85
2023/07/26 08:03:46;;;;;;;22.97;21.47;;;;;;;;;;5106032;28;20914;-85
2023/07/26 08:06:13;;;;;;;22.57;20.90;;;;;;;;;;5103173;28;20412;-85
2023/07/26 08:08:40;;;;;;;22.00;20.67;;;;;;;;;;5103607;28;21065;-84
2023/07/26 08:11:07;;;;;;;21.93;20.73;;;;;;;;;;5105714;28;20439;-84
2023/07/26 08:13:34;;;;;;;21.87;20.63;;;;;;;;;;5105760;28;20412;-84
2023/07/26 08:16:03;;;;;;;21.70;20.40;;;;;;;;;;5105676;28;20818;-84
2023/07/26 08:18:30;;;;;;;23.10;21.70;;;;;;;;;;5106238;28;20416;-83
2023/07/26 08:20:57;;;;;;;21.80;20.40;;;;;;;;;;5105789;28;20460;-85
2023/07/26 08:23:26;;;;;;;22.43;21.10;;;;;;;;;;5102345;28;20435;-82
2023/07/26 08:25:53;;;;;;;22.60;21.30;;;;;;;;;;5099807;28;20454;-82
2023/07/26 08:28:20;;;;;;;21.70;20.50;;;;;;;;;;5100084;28;20431;-81
2023/07/26 08:30:47;;;;;;;22.50;20.90;;;;;;;;;;5100339;28;20436;-83
2023/07/26 08:33:16;;;;;;;22.67;21.40;;;;;;;;;;5096241;28;20500;-81
2023/07/26 08:35:43;;;;;;;22.80;21.43;;;;;;;;;;5097256;28;20457;-81
2023/07/26 08:38:10;;;;;;;23.00;21.60;;;;;;;;;;5101503;28;20451;-84
2023/07/26 08:40:37;;;;;;;23.20;21.70;;;;;;;;;;5099950;28;20513;-84
2023/07/26 08:43:05;;;;;;;23.80;22.30;;;;;;;;;;5100713;28;20450;-84
2023/07/26 08:45:32;;;;;;;24.20;22.60;;;;;;;;;;5100797;28;20467;-84
2023/07/26 08:48:00;;;;;;;24.40;22.60;;;;;;;;;;5100781;28;20431;-83
2023/07/26 08:50:28;;;;;;;23.40;21.90;;;;;;;;;;5099561;28;21189;-83
2023/07/26 08:52:55;;;;;;;23.80;22.30;;;;;;;;;;5102182;28;20456;-83
2023/07/26 08:55:23;;;;;;;24.37;22.87;;;;;;;;;;5101458;28;20505;-84
2023/07/26 08:57:50;;;;;;;23.77;22.37;;;;;;;;;;5102942;28;20447;-85
2023/07/26 09:00:17;;;;;;;23.93;22.20;;;;;;;;;;5102345;28;20479;-83
2023/07/26 09:02:46;;;;;;;22.50;21.20;;;;;;;;;;5102787;28;20447;-85
2023/07/26 09:05:13;;;;;;;23.30;21.80;;;;;;;;;;5102757;28;20427;-85
2023/07/26 09:07:42;;;;;;;23.93;22.43;;;;;;;;;;5102867;28;20435;-85
2023/07/26 09:10:09;;;;;;;23.33;21.93;;;;;;;;;;5101617;28;20453;-84
2023/07/26 09:12:36;;;;;;;23.27;21.77;;;;;;;;;;5102337;28;20439;-86
2023/07/26 09:15:05;;;;;;;23.20;21.80;;;;;;;;;;5101264;28;20843;-86
2023/07/26 09:17:39;;;;;;;22.70;21.30;;;;;;;;;;5101459;28;20448;-86
2023/07/26 09:20:07;;;;;;;24.10;22.60;;;;;;;;;;5099889;28;20482;-84
2023/07/26 09:22:34;;;;;;;23.77;22.30;;;;;;;;;;5100574;28;20486;-85
2023/07/26 09:25:02;;;;;;;23.53;22.03;;;;;;;;;;5101355;28;20571;-84
2023/07/26 09:27:29;;;;;;;24.27;22.77;;;;;;;;;;5102293;28;20858;-84
2023/07/26 09:29:57;;;;;;;24.53;23.03;;;;;;;;;;5100745;28;20461;-85
2023/07/26 09:32:28;;;;;;;24.07;22.67;;;;;;;;;;5101298;28;20469;-84
2023/07/26 09:34:59;;;;;;;23.63;22.23;;;;;;;;;;5101993;28;20470;-85
2023/07/26 09:37:26;;;;;;;24.40;23.00;;;;;;;;;;5102334;28;20484;-85
2023/07/26 09:39:53;;;;;;;24.57;23.00;;;;;;;;;;5102779;28;21072;-84
2023/07/26 09:42:22;;;;;;;23.53;22.17;;;;;;;;;;5102402;28;20935;-87
2023/07/26 09:44:49;;;;;;;24.03;22.33;;;;;;;;;;5103238;28;20456;-85
2023/07/26 09:47:17;;;;;;;22.77;21.37;;;;;;;;;;5103256;28;20431;-85
2023/07/26 09:49:50;;;;;;;24.57;22.93;;;;;;;;;;5102128;28;20415;-86
2023/07/26 09:52:21;;;;;;;24.27;22.63;;;;;;;;;;5102545;28;20480;-83
2023/07/26 09:54:49;;;;;;;23.53;21.93;;;;;;;;;;5103034;28;20422;-84
2023/07/26 09:57:17;;;;;;;23.53;22.03;;;;;;;;;;5102621;28;20968;-85
2023/07/26 09:59:46;;;;;;;24.67;23.27;;;;;;;;;;5101799;28;20466;-85
2023/07/26 10:02:13;;;;;;;23.60;22.10;;;;;;;;;;5102351;28;20471;-84
2023/07/26 10:04:44;;;;;;;24.10;22.40;;;;;;;;;;5102919;28;20424;-85
2023/07/26 10:07:13;;;;;;;24.40;22.90;;;;;;;;;;5103418;28;20423;-84
2023/07/26 10:09:43;;;;;;;23.93;22.43;;;;;;;;;;5100841;28;20415;-85
2023/07/26 10:12:10;;;;;;;24.90;23.43;;;;;;;;;;5102810;28;20538;-84
2023/07/26 10:14:37;;;;;;;24.17;22.67;;;;;;;;;;5102020;28;20491;-85
2023/07/26 10:17:06;;;;;;;24.43;22.87;;;;;;;;;;5101556;28;20979;-85
2023/07/26 10:19:34;;;;;;;23.97;22.57;;;;;;;;;;5101878;28;20416;-85
2023/07/26 10:22:01;;;;;;;23.83;22.27;;;;;;;;;;5102019;28;20456;-85
2023/07/26 10:24:28;;;;;;;23.37;22.00;;;;;;;;;;5102157;28;20465;-84
2023/07/26 10:26:55;;;;;;;23.17;21.77;;;;;;;;;;5102768;28;20459;-85
2023/07/26 10:29:22;;;;;;;23.87;22.17;;;;;;;;;;5101580;28;20443;-85
2023/07/26 10:32:00;;;;;;;22.30;21.00;;;;;;;;;;5101508;28;20457;-85
2023/07/26 10:34:29;;;;;;;23.93;22.53;;;;;;;;;;5101904;28;20489;-84
2023/07/26 10:36:56;;;;;;;23.23;21.83;;;;;;;;;;5102594;28;20427;-85
2023/07/26 10:39:29;;;;;;;22.73;21.40;;;;;;;;;;5100975;28;20456;-86
2023/07/26 10:41:56;;;;;;;24.80;23.00;;;;;;;;;;5102675;28;20483;-85
2023/07/26 10:44:24;;;;;;;22.97;21.67;;;;;;;;;;5106078;28;20456;-85
2023/07/26 10:46:52;;;;;;;23.03;21.63;;;;;;;;;;5105485;28;20514;-85
2023/07/26 10:49:24;;;;;;;24.27;22.57;;;;;;;;;;5104966;28;20444;-84
2023/07/26 10:51:57;;;;;;;24.13;22.70;;;;;;;;;;5105409;28;20488;-86
2023/07/26 10:54:34;;;;;;;24.27;22.50;;;;;;;;;;5105728;28;20467;-84
2023/07/26 10:57:17;;;;;;;23.47;21.80;;;;;;;;;;5106798;28;20440;-86
2023/07/26 10:59:59;;;;;;;24.20;22.70;;;;;;;;;;5105201;28;20914;-85
2023/07/26 11:02:36;;;;;;;23.23;21.80;;;;;;;;;;5104019;28;20468;-84
2023/07/26 11:05:05;;;;;;;23.63;22.00;;;;;;;;;;5106095;28;20422;-84
2023/07/26 11:07:52;;;;;;;23.60;22.23;;;;;;;;;;5106353;28;20437;-85
2023/07/26 11:10:20;;;;;;;23.70;22.20;;;;;;;;;;5106074;28;20419;-85
2023/07/26 11:12:50;;;;;;;24.20;22.70;;;;;;;;;;5105968;28;20522;-85
2023/07/26 11:15:27;;;;;;;23.90;22.30;;;;;;;;;;5105067;28;20480;-85
2023/07/26 11:17:54;;;;;;;23.73;22.23;;;;;;;;;;5106036;28;20468;-85
2023/07/26 11:20:21;;;;;;;24.50;22.90;;;;;;;;;;5105248;28;20480;-85
2023/07/26 11:22:48;;;;;;;24.83;23.33;;;;;;;;;;5105442;28;20483;-85
2023/07/26 11:25:17;;;;;;;24.40;22.97;;;;;;;;;;5104467;28;20468;-86
2023/07/26 11:27:45;;;;;;;24.53;23.10;;;;;;;;;;5093084;28;20421;-86
2023/07/26 11:30:16;;;;;;;24.90;23.33;;;;;;;;;;5089665;28;20786;-86
2023/07/26 11:32:46;;;;;;;24.03;22.33;;;;;;;;;;5084785;28;20495;-79
2023/07/26 11:35:15;;;;;;;24.03;22.63;;;;;;;;;;5095116;28;20456;-79
2023/07/26 11:37:51;;;;;;;24.77;23.20;;;;;;;;;;5095339;28;20494;-78
2023/07/26 11:40:20;;;;;;;24.43;22.83;;;;;;;;;;5093679;28;20451;-79
2023/07/26 11:42:47;;;;;;;23.53;22.13;;;;;;;;;;5095030;28;20961;-79
2023/07/26 11:45:15;;;;;;;23.83;22.23;;;;;;;;;;5095594;28;20448;-79
2023/07/26 11:47:42;;;;;;;23.90;22.40;;;;;;;;;;5095028;28;20468;-79
2023/07/26 11:50:10;;;;;;;22.80;21.47;;;;;;;;;;5094384;28;20439;-78
2023/07/26 11:52:38;;;;;;;23.73;22.23;;;;;;;;;;5094718;28;20466;-78
2023/07/26 11:55:06;;;;;;;24.30;22.80;;;;;;;;;;5094074;28;20453;-79
2023/07/26 11:57:35;;;;;;;24.50;23.00;;;;;;;;;;5094736;28;20952;-77
2023/07/26 12:00:04;;;;;;;24.77;23.27;;;;;;;;;;5093276;28;20428;-78
2023/07/26 12:02:31;;;;;;;23.80;22.30;;;;;;;;;;5093600;28;20980;-79
2023/07/26 12:05:18;;;;;;;24.37;22.87;;;;;;;;;;5093425;28;20489;-79
2023/07/26 12:07:45;;;;;;;25.27;23.67;;;;;;;;;;5094244;28;20463;-79
2023/07/26 12:10:12;;;;;;;24.30;22.73;;;;;;;;;;5093428;28;20423;-78
2023/07/26 12:12:43;;;;;;;25.47;23.87;;;;;;;;;;5093747;28;20469;-79
2023/07/26 12:15:11;;;;;;;25.57;23.87;;;;;;;;;;5093489;28;20427;-79
2023/07/26 12:17:54;;;;;;;24.73;23.03;;;;;;;;;;5093708;28;20460;-80
2023/07/26 12:20:21;;;;;;;25.27;23.70;;;;;;;;;;5092698;28;20963;-79
2023/07/26 12:22:52;;;;;;;25.10;23.40;;;;;;;;;;5092629;28;20989;-78
2023/07/26 12:25:19;;;;;;;24.70;23.20;;;;;;;;;;5093015;28;20539;-79
2023/07/26 12:27:49;;;;;;;25.53;23.90;;;;;;;;;;5093364;28;20423;-78
2023/07/26 12:30:19;;;;;;;26.17;24.47;;;;;;;;;;5092660;28;20574;-79
2023/07/26 12:32:46;;;;;;;26.37;24.67;;;;;;;;;;5092379;28;20476;-78
2023/07/26 12:35:20;;;;;;;25.43;23.90;;;;;;;;;;5092842;28;20488;-78
2023/07/26 12:37:49;;;;;;;25.53;23.93;;;;;;;;;;5093078;28;20475;-78
2023/07/26 12:40:16;;;;;;;25.30;23.40;;;;;;;;;;5092555;28;20556;-79
2023/07/26 12:42:43;;;;;;;24.97;23.17;;;;;;;;;;5092734;28;20572;-78
2023/07/26 12:45:13;;;;;;;24.40;22.80;;;;;;;;;;5093067;28;20461;-78
2023/07/26 12:47:41;;;;;;;25.17;23.60;;;;;;;;;;5093683;28;20412;-78
2023/07/26 12:50:08;;;;;;;24.37;22.87;;;;;;;;;;5094944;28;20502;-81
2023/07/26 12:52:37;;;;;;;24.27;22.77;;;;;;;;;;5095041;28;20575;-79
2023/07/26 12:55:05;;;;;;;24.93;23.33;;;;;;;;;;5094719;28;20550;-79
2023/07/26 12:57:32;;;;;;;22.77;21.30;;;;;;;;;;5093545;28;20427;-80
2023/07/26 12:59:59;;;;;;;23.00;21.60;;;;;;;;;;5094337;28;20477;-80
2023/07/26 13:02:28;;;;;;;23.00;21.50;;;;;;;;;;5093775;28;20797;-80
2023/07/26 13:04:55;;;;;;;23.80;22.40;;;;;;;;;;5094229;28;20832;-80
2023/07/26 13:07:22;;;;;;;24.03;22.43;;;;;;;;;;5094172;28;20428;-79
2023/07/26 13:09:49;;;;;;;24.30;22.80;;;;;;;;;;5093638;28;20431;-80
2023/07/26 13:12:16;;;;;;;24.63;22.93;;;;;;;;;;5092570;28;20471;-80
2023/07/26 13:14:43;;;;;;;25.10;23.40;;;;;;;;;;5093998;28;20427;-79
2023/07/26 13:17:10;;;;;;;23.60;22.20;;;;;;;;;;5092029;28;20456;-79
2023/07/26 13:19:38;;;;;;;25.20;23.60;;;;;;;;;;5092540;28;20448;-78
2023/07/26 13:22:05;;;;;;;24.93;23.33;;;;;;;;;;5093823;28;20505;-79
2023/07/26 13:24:32;;;;;;;26.00;24.50;;;;;;;;;;5093129;28;20455;-79
2023/07/26 13:26:59;;;;;;;25.80;24.23;;;;;;;;;;5091753;28;20981;-79
2023/07/26 13:29:26;;;;;;;25.87;24.20;;;;;;;;;;5092948;28;20427;-78
2023/07/26 13:31:53;;;;;;;24.80;23.30;;;;;;;;;;5093101;28;20826;-79
2023/07/26 13:34:20;;;;;;;24.00;22.40;;;;;;;;;;5093236;28;20465;-80
2023/07/26 13:36:49;;;;;;;24.80;23.27;;;;;;;;;;5093158;28;20456;-79
2023/07/26 13:39:16;;;;;;;24.73;23.23;;;;;;;;;;5092941;28;20448;-78
2023/07/26 13:41:43;;;;;;;24.10;22.70;;;;;;;;;;5093805;28;20479;-82
2023/07/26 13:44:10;;;;;;;23.43;21.93;;;;;;;;;;5097033;28;20441;-82
2023/07/26 13:46:37;;;;;;;24.37;22.87;;;;;;;;;;5096531;28;20444;-81
2023/07/26 13:49:05;;;;;;;23.30;21.90;;;;;;;;;;5094945;28;20423;-82
2023/07/26 13:51:32;;;;;;;23.43;22.03;;;;;;;;;;5096660;28;20469;-81
2023/07/26 13:54:01;;;;;;;23.77;22.20;;;;;;;;;;5098085;28;20430;-82
2023/07/26 13:56:28;;;;;;;24.30;22.80;;;;;;;;;;5098758;28;20804;-80
2023/07/26 13:58:55;;;;;;;24.80;23.20;;;;;;;;;;5098422;28;20441;-87
2023/07/26 14:01:23;;;;;;;23.73;22.33;;;;;;;;;;5098724;28;20497;-85
2023/07/26 14:03:50;;;;;;;24.17;22.23;;;;;;;;;;5093081;28;20428;-85
2023/07/26 14:06:17;;;;;;;24.13;22.43;;;;;;;;;;5102214;28;20437;-85
2023/07/26 14:08:44;;;;;;;23.57;22.13;;;;;;;;;;5102708;28;20427;-85
2023/07/26 14:11:12;;;;;;;23.10;21.60;;;;;;;;;;5100049;28;20846;-87
2023/07/26 14:13:40;;;;;;;23.60;22.20;;;;;;;;;;5097295;28;20448;-87
2023/07/26 14:16:07;;;;;;;23.03;21.63;;;;;;;;;;5096905;28;20435;-87
2023/07/26 14:18:34;;;;;;;24.00;22.40;;;;;;;;;;5100785;28;20456;-87
2023/07/26 14:21:01;;;;;;;23.43;22.03;;;;;;;;;;5101631;28;20492;-87